sensor_id;sensor_type;location;lat;lon;timestamp;P1;durP1;ratioP1;P2;durP2;ratioP2
32186;SDS011;18686;53.084;8.872;2022-09-27T00:01:52;72.22;;;34.33;;
32186;SDS011;18686;53.084;8.872;2022-09-27T00:04:20;72.72;;;34.60;;
32186;SDS011;18686;53.084;8.872;2022-09-27T00:06:50;70.22;;;33.10;;
32186;SDS011;18686;53.084;8.872;2022-09-27T00:09:19;71.38;;;33.20;;
32186;SDS011;18686;53.084;8.872;2022-09-27T00:11:47;74.47;;;34.33;;
32186;SDS011;18686;53.084;8.872;2022-09-27T00:14:16;68.45;;;33.35;;
32186;SDS011;18686;53.084;8.872;2022-09-27T00:16:44;62.17;;;31.40;;
32186;SDS011;18686;53.084;8.872;2022-09-27T00:19:13;69.53;;;32.15;;
32186;SDS011;18686;53.084;8.872;2022-09-27T00:21:44;75.65;;;31.83;;
32186;SDS011;18686;53.084;8.872;2022-09-27T00:24:15;71.95;;;32.08;;
32186;SDS011;18686;53.084;8.872;2022-09-27T00:26:45;73.85;;;32.42;;
32186;SDS011;18686;53.084;8.872;2022-09-27T00:29:13;103.63;;;39.22;;
32186;SDS011;18686;53.084;8.872;2022-09-27T00:31:45;90.30;;;36.28;;
32186;SDS011;18686;53.084;8.872;2022-09-27T00:34:15;89.40;;;35.15;;
32186;SDS011;18686;53.084;8.872;2022-09-27T00:36:46;79.43;;;32.75;;
32186;SDS011;18686;53.084;8.872;2022-09-27T00:39:16;106.65;;;39.58;;
32186;SDS011;18686;53.084;8.872;2022-09-27T00:41:45;84.15;;;34.10;;
32186;SDS011;18686;53.084;8.872;2022-09-27T00:47:29;94.53;;;34.28;;
32186;SDS011;18686;53.084;8.872;2022-09-27T00:50:04;87.60;;;33.80;;
32186;SDS011;18686;53.084;8.872;2022-09-27T00:52:40;99.30;;;34.75;;
32186;SDS011;18686;53.084;8.872;2022-09-27T00:55:14;115.93;;;39.20;;
32186;SDS011;18686;53.084;8.872;2022-09-27T00:57:48;110.28;;;39.25;;
32186;SDS011;18686;53.084;8.872;2022-09-27T01:00:18;126.50;;;40.00;;
32186;SDS011;18686;53.084;8.872;2022-09-27T01:02:48;156.00;;;46.28;;
32186;SDS011;18686;53.084;8.872;2022-09-27T01:05:20;133.32;;;40.15;;
32186;SDS011;18686;53.084;8.872;2022-09-27T01:07:54;136.60;;;41.45;;
32186;SDS011;18686;53.084;8.872;2022-09-27T01:10:28;138.52;;;40.72;;
32186;SDS011;18686;53.084;8.872;2022-09-27T01:13:04;140.88;;;41.90;;
32186;SDS011;18686;53.084;8.872;2022-09-27T01:15:41;147.32;;;42.75;;
32186;SDS011;18686;53.084;8.872;2022-09-27T01:18:23;163.82;;;45.25;;
32186;SDS011;18686;53.084;8.872;2022-09-27T01:21:05;162.45;;;45.35;;
32186;SDS011;18686;53.084;8.872;2022-09-27T01:23:50;179.73;;;48.45;;
32186;SDS011;18686;53.084;8.872;2022-09-27T01:26:34;177.82;;;46.30;;
32186;SDS011;18686;53.084;8.872;2022-09-27T01:29:14;193.70;;;46.60;;
32186;SDS011;18686;53.084;8.872;2022-09-27T01:31:58;182.95;;;45.42;;
32186;SDS011;18686;53.084;8.872;2022-09-27T01:34:34;186.75;;;45.28;;
32186;SDS011;18686;53.084;8.872;2022-09-27T01:37:11;190.27;;;43.30;;
32186;SDS011;18686;53.084;8.872;2022-09-27T01:39:48;165.43;;;40.92;;
32186;SDS011;18686;53.084;8.872;2022-09-27T01:42:28;191.95;;;41.88;;
32186;SDS011;18686;53.084;8.872;2022-09-27T01:45:05;165.77;;;36.95;;
32186;SDS011;18686;53.084;8.872;2022-09-27T01:47:52;171.82;;;37.13;;
32186;SDS011;18686;53.084;8.872;2022-09-27T01:50:47;147.65;;;35.17;;
32186;SDS011;18686;53.084;8.872;2022-09-27T01:53:20;164.30;;;36.15;;
32186;SDS011;18686;53.084;8.872;2022-09-27T01:56:06;164.35;;;36.03;;
32186;SDS011;18686;53.084;8.872;2022-09-27T01:59:03;146.48;;;33.10;;
32186;SDS011;18686;53.084;8.872;2022-09-27T02:01:40;143.02;;;34.08;;
32186;SDS011;18686;53.084;8.872;2022-09-27T02:04:16;126.57;;;33.40;;
32186;SDS011;18686;53.084;8.872;2022-09-27T02:07:07;153.60;;;35.33;;
32186;SDS011;18686;53.084;8.872;2022-09-27T02:09:40;124.72;;;31.38;;
32186;SDS011;18686;53.084;8.872;2022-09-27T02:12:18;118.20;;;32.95;;
32186;SDS011;18686;53.084;8.872;2022-09-27T02:14:52;118.88;;;31.83;;
32186;SDS011;18686;53.084;8.872;2022-09-27T02:17:28;116.10;;;34.53;;
32186;SDS011;18686;53.084;8.872;2022-09-27T02:20:05;124.90;;;36.03;;
32186;SDS011;18686;53.084;8.872;2022-09-27T02:22:46;106.25;;;32.08;;
32186;SDS011;18686;53.084;8.872;2022-09-27T02:25:19;111.20;;;30.98;;
32186;SDS011;18686;53.084;8.872;2022-09-27T02:27:54;106.35;;;30.35;;
32186;SDS011;18686;53.084;8.872;2022-09-27T02:30:30;104.30;;;29.70;;
32186;SDS011;18686;53.084;8.872;2022-09-27T02:33:12;104.75;;;29.02;;
32186;SDS011;18686;53.084;8.872;2022-09-27T02:35:42;89.00;;;26.80;;
32186;SDS011;18686;53.084;8.872;2022-09-27T02:38:11;89.25;;;26.05;;
32186;SDS011;18686;53.084;8.872;2022-09-27T02:40:41;86.38;;;25.52;;
32186;SDS011;18686;53.084;8.872;2022-09-27T02:43:12;92.50;;;26.70;;
32186;SDS011;18686;53.084;8.872;2022-09-27T02:45:44;73.45;;;24.58;;
32186;SDS011;18686;53.084;8.872;2022-09-27T02:48:23;86.30;;;28.77;;
32186;SDS011;18686;53.084;8.872;2022-09-27T02:51:03;75.13;;;23.10;;
32186;SDS011;18686;53.084;8.872;2022-09-27T02:53:52;68.50;;;22.02;;
32186;SDS011;18686;53.084;8.872;2022-09-27T02:56:49;68.60;;;21.80;;
32186;SDS011;18686;53.084;8.872;2022-09-27T02:59:51;73.15;;;23.80;;
32186;SDS011;18686;53.084;8.872;2022-09-27T03:02:50;72.43;;;22.30;;
32186;SDS011;18686;53.084;8.872;2022-09-27T03:05:48;65.50;;;20.92;;
32186;SDS011;18686;53.084;8.872;2022-09-27T03:08:22;59.47;;;19.08;;
32186;SDS011;18686;53.084;8.872;2022-09-27T03:10:51;55.55;;;16.98;;
32186;SDS011;18686;53.084;8.872;2022-09-27T03:13:19;49.63;;;15.70;;
32186;SDS011;18686;53.084;8.872;2022-09-27T03:15:48;41.33;;;13.38;;
32186;SDS011;18686;53.084;8.872;2022-09-27T03:18:16;37.80;;;13.40;;
32186;SDS011;18686;53.084;8.872;2022-09-27T03:21:03;38.10;;;13.45;;
32186;SDS011;18686;53.084;8.872;2022-09-27T03:23:33;37.22;;;14.70;;
32186;SDS011;18686;53.084;8.872;2022-09-27T03:26:02;38.05;;;12.75;;
32186;SDS011;18686;53.084;8.872;2022-09-27T03:28:33;28.55;;;11.43;;
32186;SDS011;18686;53.084;8.872;2022-09-27T03:31:02;29.73;;;9.38;;
32186;SDS011;18686;53.084;8.872;2022-09-27T03:33:45;31.45;;;10.18;;
32186;SDS011;18686;53.084;8.872;2022-09-27T03:36:13;26.48;;;10.13;;
32186;SDS011;18686;53.084;8.872;2022-09-27T03:38:43;27.20;;;9.60;;
32186;SDS011;18686;53.084;8.872;2022-09-27T03:41:15;26.52;;;10.02;;
32186;SDS011;18686;53.084;8.872;2022-09-27T03:43:43;23.70;;;9.52;;
32186;SDS011;18686;53.084;8.872;2022-09-27T03:46:11;27.33;;;9.88;;
32186;SDS011;18686;53.084;8.872;2022-09-27T03:48:40;28.17;;;9.05;;
32186;SDS011;18686;53.084;8.872;2022-09-27T03:51:08;23.15;;;8.00;;
32186;SDS011;18686;53.084;8.872;2022-09-27T03:53:38;22.63;;;7.10;;
32186;SDS011;18686;53.084;8.872;2022-09-27T03:56:09;17.58;;;6.90;;
32186;SDS011;18686;53.084;8.872;2022-09-27T03:58:38;18.73;;;6.47;;
32186;SDS011;18686;53.084;8.872;2022-09-27T04:01:06;20.92;;;6.30;;
32186;SDS011;18686;53.084;8.872;2022-09-27T04:03:40;19.02;;;5.80;;
32186;SDS011;18686;53.084;8.872;2022-09-27T04:06:24;22.08;;;6.45;;
32186;SDS011;18686;53.084;8.872;2022-09-27T04:09:11;27.33;;;7.18;;
32186;SDS011;18686;53.084;8.872;2022-09-27T04:11:56;21.50;;;6.63;;
32186;SDS011;18686;53.084;8.872;2022-09-27T04:14:24;25.33;;;7.63;;
32186;SDS011;18686;53.084;8.872;2022-09-27T04:17:16;31.67;;;8.40;;
32186;SDS011;18686;53.084;8.872;2022-09-27T04:20:03;37.78;;;10.30;;
32186;SDS011;18686;53.084;8.872;2022-09-27T04:22:34;36.15;;;10.90;;
32186;SDS011;18686;53.084;8.872;2022-09-27T04:25:05;47.08;;;12.05;;
32186;SDS011;18686;53.084;8.872;2022-09-27T04:27:38;37.25;;;12.05;;
32186;SDS011;18686;53.084;8.872;2022-09-27T04:30:13;45.70;;;11.93;;
32186;SDS011;18686;53.084;8.872;2022-09-27T04:33:20;45.40;;;13.90;;
32186;SDS011;18686;53.084;8.872;2022-09-27T04:36:03;49.88;;;14.55;;
32186;SDS011;18686;53.084;8.872;2022-09-27T04:38:59;54.58;;;14.95;;
32186;SDS011;18686;53.084;8.872;2022-09-27T04:41:30;56.40;;;15.45;;
32186;SDS011;18686;53.084;8.872;2022-09-27T04:44:00;50.45;;;15.75;;
32186;SDS011;18686;53.084;8.872;2022-09-27T04:46:29;76.40;;;17.95;;
32186;SDS011;18686;53.084;8.872;2022-09-27T04:48:58;62.03;;;19.08;;
32186;SDS011;18686;53.084;8.872;2022-09-27T04:51:28;62.58;;;17.30;;
32186;SDS011;18686;53.084;8.872;2022-09-27T04:53:56;64.18;;;18.73;;
32186;SDS011;18686;53.084;8.872;2022-09-27T04:56:28;46.22;;;15.90;;
32186;SDS011;18686;53.084;8.872;2022-09-27T04:58:56;60.53;;;16.58;;
32186;SDS011;18686;53.084;8.872;2022-09-27T05:01:26;45.97;;;15.05;;
32186;SDS011;18686;53.084;8.872;2022-09-27T05:04:11;62.63;;;16.63;;
32186;SDS011;18686;53.084;8.872;2022-09-27T05:06:45;53.58;;;15.90;;
32186;SDS011;18686;53.084;8.872;2022-09-27T05:09:23;44.90;;;14.52;;
32186;SDS011;18686;53.084;8.872;2022-09-27T05:11:54;46.58;;;15.32;;
32186;SDS011;18686;53.084;8.872;2022-09-27T05:14:38;47.83;;;14.88;;
32186;SDS011;18686;53.084;8.872;2022-09-27T05:17:43;52.10;;;15.55;;
32186;SDS011;18686;53.084;8.872;2022-09-27T05:20:41;43.15;;;14.23;;
32186;SDS011;18686;53.084;8.872;2022-09-27T05:23:21;47.72;;;13.85;;
32186;SDS011;18686;53.084;8.872;2022-09-27T05:25:50;43.45;;;13.38;;
32186;SDS011;18686;53.084;8.872;2022-09-27T05:28:21;40.33;;;13.65;;
32186;SDS011;18686;53.084;8.872;2022-09-27T05:30:49;40.47;;;13.48;;
32186;SDS011;18686;53.084;8.872;2022-09-27T05:33:21;43.05;;;14.05;;
32186;SDS011;18686;53.084;8.872;2022-09-27T05:36:08;38.33;;;12.05;;
32186;SDS011;18686;53.084;8.872;2022-09-27T05:38:37;43.15;;;12.80;;
32186;SDS011;18686;53.084;8.872;2022-09-27T05:41:07;38.10;;;11.77;;
32186;SDS011;18686;53.084;8.872;2022-09-27T05:43:38;44.90;;;12.10;;
32186;SDS011;18686;53.084;8.872;2022-09-27T05:46:07;38.55;;;11.52;;
32186;SDS011;18686;53.084;8.872;2022-09-27T05:48:38;35.95;;;12.00;;
32186;SDS011;18686;53.084;8.872;2022-09-27T05:51:06;42.95;;;11.73;;
32186;SDS011;18686;53.084;8.872;2022-09-27T05:53:37;34.95;;;11.77;;
32186;SDS011;18686;53.084;8.872;2022-09-27T05:56:12;44.60;;;14.15;;
32186;SDS011;18686;53.084;8.872;2022-09-27T05:59:10;46.00;;;13.55;;
32186;SDS011;18686;53.084;8.872;2022-09-27T06:01:57;48.90;;;12.70;;
32186;SDS011;18686;53.084;8.872;2022-09-27T06:04:47;42.28;;;11.98;;
32186;SDS011;18686;53.084;8.872;2022-09-27T06:07:41;39.58;;;12.27;;
32186;SDS011;18686;53.084;8.872;2022-09-27T06:10:17;44.20;;;11.63;;
32186;SDS011;18686;53.084;8.872;2022-09-27T06:12:46;44.20;;;12.20;;
32186;SDS011;18686;53.084;8.872;2022-09-27T06:15:37;39.53;;;12.02;;
32186;SDS011;18686;53.084;8.872;2022-09-27T06:18:07;45.05;;;12.20;;
32186;SDS011;18686;53.084;8.872;2022-09-27T06:20:39;42.55;;;12.32;;
32186;SDS011;18686;53.084;8.872;2022-09-27T06:23:09;44.92;;;13.15;;
32186;SDS011;18686;53.084;8.872;2022-09-27T06:25:39;36.58;;;11.23;;
32186;SDS011;18686;53.084;8.872;2022-09-27T06:28:31;39.40;;;11.55;;
32186;SDS011;18686;53.084;8.872;2022-09-27T06:31:03;44.05;;;12.23;;
32186;SDS011;18686;53.084;8.872;2022-09-27T06:33:39;38.72;;;11.20;;
32186;SDS011;18686;53.084;8.872;2022-09-27T06:36:09;36.35;;;11.63;;
32186;SDS011;18686;53.084;8.872;2022-09-27T06:38:39;38.38;;;12.52;;
32186;SDS011;18686;53.084;8.872;2022-09-27T06:41:30;31.40;;;10.88;;
32186;SDS011;18686;53.084;8.872;2022-09-27T06:44:04;29.83;;;10.63;;
32186;SDS011;18686;53.084;8.872;2022-09-27T06:46:55;22.80;;;8.93;;
32186;SDS011;18686;53.084;8.872;2022-09-27T06:49:41;28.38;;;10.27;;
32186;SDS011;18686;53.084;8.872;2022-09-27T06:52:11;27.70;;;8.85;;
32186;SDS011;18686;53.084;8.872;2022-09-27T06:54:39;27.10;;;8.50;;
32186;SDS011;18686;53.084;8.872;2022-09-27T06:57:08;15.82;;;6.68;;
32186;SDS011;18686;53.084;8.872;2022-09-27T06:59:56;23.77;;;6.72;;
32186;SDS011;18686;53.084;8.872;2022-09-27T07:03:00;12.95;;;5.97;;
32186;SDS011;18686;53.084;8.872;2022-09-27T07:05:54;12.65;;;5.25;;
32186;SDS011;18686;53.084;8.872;2022-09-27T07:08:47;15.32;;;4.65;;
32186;SDS011;18686;53.084;8.872;2022-09-27T07:11:18;10.45;;;3.55;;
32186;SDS011;18686;53.084;8.872;2022-09-27T07:13:47;9.90;;;3.72;;
32186;SDS011;18686;53.084;8.872;2022-09-27T07:16:16;10.88;;;3.20;;
32186;SDS011;18686;53.084;8.872;2022-09-27T07:18:46;8.95;;;3.22;;
32186;SDS011;18686;53.084;8.872;2022-09-27T07:21:14;12.13;;;3.40;;
32186;SDS011;18686;53.084;8.872;2022-09-27T07:23:44;7.85;;;2.72;;
32186;SDS011;18686;53.084;8.872;2022-09-27T07:26:13;10.32;;;2.75;;
32186;SDS011;18686;53.084;8.872;2022-09-27T07:28:42;11.73;;;3.00;;
32186;SDS011;18686;53.084;8.872;2022-09-27T07:31:14;7.50;;;2.88;;
32186;SDS011;18686;53.084;8.872;2022-09-27T07:33:42;13.02;;;2.45;;
32186;SDS011;18686;53.084;8.872;2022-09-27T07:36:11;8.20;;;2.20;;
32186;SDS011;18686;53.084;8.872;2022-09-27T07:38:44;9.98;;;2.05;;
32186;SDS011;18686;53.084;8.872;2022-09-27T07:41:16;6.78;;;2.20;;
32186;SDS011;18686;53.084;8.872;2022-09-27T07:43:44;8.65;;;2.15;;
32186;SDS011;18686;53.084;8.872;2022-09-27T07:46:16;5.75;;;1.55;;
32186;SDS011;18686;53.084;8.872;2022-09-27T07:48:52;5.20;;;1.60;;
32186;SDS011;18686;53.084;8.872;2022-09-27T07:51:47;2.90;;;1.30;;
32186;SDS011;18686;53.084;8.872;2022-09-27T07:54:31;9.30;;;1.77;;
32186;SDS011;18686;53.084;8.872;2022-09-27T07:57:21;5.75;;;1.55;;
32186;SDS011;18686;53.084;8.872;2022-09-27T07:59:52;3.72;;;1.20;;
32186;SDS011;18686;53.084;8.872;2022-09-27T08:02:21;5.72;;;1.98;;
32186;SDS011;18686;53.084;8.872;2022-09-27T08:04:51;7.47;;;1.50;;
32186;SDS011;18686;53.084;8.872;2022-09-27T08:07:21;4.88;;;1.10;;
32186;SDS011;18686;53.084;8.872;2022-09-27T08:09:54;3.10;;;0.82;;
32186;SDS011;18686;53.084;8.872;2022-09-27T08:12:22;2.97;;;1.20;;
32186;SDS011;18686;53.084;8.872;2022-09-27T08:14:51;3.63;;;1.20;;
32186;SDS011;18686;53.084;8.872;2022-09-27T08:17:21;5.40;;;1.00;;
32186;SDS011;18686;53.084;8.872;2022-09-27T08:20:08;6.57;;;1.80;;
32186;SDS011;18686;53.084;8.872;2022-09-27T08:22:55;7.18;;;1.40;;
32186;SDS011;18686;53.084;8.872;2022-09-27T08:25:43;9.88;;;1.38;;
32186;SDS011;18686;53.084;8.872;2022-09-27T08:28:25;6.55;;;1.20;;
32186;SDS011;18686;53.084;8.872;2022-09-27T08:31:00;5.20;;;1.20;;
32186;SDS011;18686;53.084;8.872;2022-09-27T08:33:29;3.20;;;0.88;;
32186;SDS011;18686;53.084;8.872;2022-09-27T08:36:01;4.97;;;1.30;;
32186;SDS011;18686;53.084;8.872;2022-09-27T08:38:29;3.03;;;1.08;;
32186;SDS011;18686;53.084;8.872;2022-09-27T08:41:00;5.15;;;1.00;;
32186;SDS011;18686;53.084;8.872;2022-09-27T08:43:35;4.32;;;1.27;;
32186;SDS011;18686;53.084;8.872;2022-09-27T08:46:19;4.60;;;0.90;;
32186;SDS011;18686;53.084;8.872;2022-09-27T08:48:56;5.57;;;1.20;;
32186;SDS011;18686;53.084;8.872;2022-09-27T08:51:32;2.03;;;0.80;;
32186;SDS011;18686;53.084;8.872;2022-09-27T08:54:02;7.15;;;2.08;;
32186;SDS011;18686;53.084;8.872;2022-09-27T08:56:35;6.38;;;1.70;;
32186;SDS011;18686;53.084;8.872;2022-09-27T08:59:06;6.80;;;1.63;;
32186;SDS011;18686;53.084;8.872;2022-09-27T09:01:40;4.68;;;1.50;;
32186;SDS011;18686;53.084;8.872;2022-09-27T09:04:20;7.05;;;1.30;;
32186;SDS011;18686;53.084;8.872;2022-09-27T09:06:57;6.15;;;1.13;;
32186;SDS011;18686;53.084;8.872;2022-09-27T09:09:37;11.00;;;1.35;;
32186;SDS011;18686;53.084;8.872;2022-09-27T09:12:22;6.57;;;1.00;;
32186;SDS011;18686;53.084;8.872;2022-09-27T09:15:29;3.97;;;0.90;;
32186;SDS011;18686;53.084;8.872;2022-09-27T09:18:37;3.10;;;0.80;;
32186;SDS011;18686;53.084;8.872;2022-09-27T09:21:34;3.97;;;0.93;;
32186;SDS011;18686;53.084;8.872;2022-09-27T09:27:08;6.20;;;0.60;;
32186;SDS011;18686;53.084;8.872;2022-09-27T09:29:49;6.88;;;0.68;;
32186;SDS011;18686;53.084;8.872;2022-09-27T09:32:33;6.03;;;0.70;;
32186;SDS011;18686;53.084;8.872;2022-09-27T09:35:14;6.55;;;1.42;;
32186;SDS011;18686;53.084;8.872;2022-09-27T09:37:47;4.68;;;0.80;;
32186;SDS011;18686;53.084;8.872;2022-09-27T09:40:20;5.05;;;1.00;;
32186;SDS011;18686;53.084;8.872;2022-09-27T09:42:53;3.00;;;0.90;;
32186;SDS011;18686;53.084;8.872;2022-09-27T09:45:27;2.00;;;0.70;;
32186;SDS011;18686;53.084;8.872;2022-09-27T09:48:01;4.25;;;0.77;;
32186;SDS011;18686;53.084;8.872;2022-09-27T09:50:35;5.85;;;1.90;;
32186;SDS011;18686;53.084;8.872;2022-09-27T09:53:10;6.38;;;1.63;;
32186;SDS011;18686;53.084;8.872;2022-09-27T09:55:41;5.28;;;1.20;;
32186;SDS011;18686;53.084;8.872;2022-09-27T09:58:18;2.90;;;0.70;;
32186;SDS011;18686;53.084;8.872;2022-09-27T10:00:54;5.57;;;0.98;;
32186;SDS011;18686;53.084;8.872;2022-09-27T10:03:27;8.25;;;1.17;;
32186;SDS011;18686;53.084;8.872;2022-09-27T10:05:57;5.40;;;1.10;;
32186;SDS011;18686;53.084;8.872;2022-09-27T10:08:25;3.20;;;1.25;;
32186;SDS011;18686;53.084;8.872;2022-09-27T10:11:20;4.15;;;1.10;;
32186;SDS011;18686;53.084;8.872;2022-09-27T10:14:07;5.43;;;1.40;;
32186;SDS011;18686;53.084;8.872;2022-09-27T10:16:38;6.77;;;1.30;;
32186;SDS011;18686;53.084;8.872;2022-09-27T10:19:09;6.18;;;1.42;;
32186;SDS011;18686;53.084;8.872;2022-09-27T10:21:41;5.03;;;1.67;;
32186;SDS011;18686;53.084;8.872;2022-09-27T10:24:13;6.28;;;1.10;;
32186;SDS011;18686;53.084;8.872;2022-09-27T10:27:10;2.70;;;1.15;;
32186;SDS011;18686;53.084;8.872;2022-09-27T10:29:39;2.60;;;0.98;;
32186;SDS011;18686;53.084;8.872;2022-09-27T10:32:20;6.43;;;1.25;;
32186;SDS011;18686;53.084;8.872;2022-09-27T10:35:20;3.65;;;1.20;;
32186;SDS011;18686;53.084;8.872;2022-09-27T10:38:11;10.75;;;1.30;;
32186;SDS011;18686;53.084;8.872;2022-09-27T10:40:55;3.00;;;1.15;;
32186;SDS011;18686;53.084;8.872;2022-09-27T10:43:28;5.10;;;1.00;;
32186;SDS011;18686;53.084;8.872;2022-09-27T10:46:15;3.42;;;1.38;;
32186;SDS011;18686;53.084;8.872;2022-09-27T10:51:48;3.35;;;1.00;;
32186;SDS011;18686;53.084;8.872;2022-09-27T10:54:20;3.45;;;0.90;;
32186;SDS011;18686;53.084;8.872;2022-09-27T10:56:54;2.40;;;0.98;;
32186;SDS011;18686;53.084;8.872;2022-09-27T10:59:27;5.87;;;1.00;;
32186;SDS011;18686;53.084;8.872;2022-09-27T11:01:58;2.40;;;0.90;;
32186;SDS011;18686;53.084;8.872;2022-09-27T11:04:33;1.35;;;0.80;;
32186;SDS011;18686;53.084;8.872;2022-09-27T11:09:58;5.53;;;1.00;;
32186;SDS011;18686;53.084;8.872;2022-09-27T11:12:31;3.72;;;0.80;;
32186;SDS011;18686;53.084;8.872;2022-09-27T11:15:03;3.33;;;1.08;;
32186;SDS011;18686;53.084;8.872;2022-09-27T11:17:38;2.95;;;0.80;;
32186;SDS011;18686;53.084;8.872;2022-09-27T11:20:15;2.08;;;0.90;;
32186;SDS011;18686;53.084;8.872;2022-09-27T11:22:58;3.58;;;0.98;;
32186;SDS011;18686;53.084;8.872;2022-09-27T11:26:01;3.78;;;1.20;;
32186;SDS011;18686;53.084;8.872;2022-09-27T11:28:44;3.47;;;1.08;;
32186;SDS011;18686;53.084;8.872;2022-09-27T11:31:41;5.03;;;1.40;;
32186;SDS011;18686;53.084;8.872;2022-09-27T11:34:18;2.38;;;0.90;;
32186;SDS011;18686;53.084;8.872;2022-09-27T11:36:58;7.68;;;1.30;;
32186;SDS011;18686;53.084;8.872;2022-09-27T11:39:39;4.57;;;1.05;;
32186;SDS011;18686;53.084;8.872;2022-09-27T11:42:27;2.70;;;1.17;;
32186;SDS011;18686;53.084;8.872;2022-09-27T11:45:22;3.67;;;1.30;;
32186;SDS011;18686;53.084;8.872;2022-09-27T11:48:28;8.50;;;1.52;;
32186;SDS011;18686;53.084;8.872;2022-09-27T11:51:07;2.13;;;1.15;;
32186;SDS011;18686;53.084;8.872;2022-09-27T11:53:58;3.28;;;1.20;;
32186;SDS011;18686;53.084;8.872;2022-09-27T11:56:43;4.95;;;1.38;;
32186;SDS011;18686;53.084;8.872;2022-09-27T11:59:29;5.93;;;2.38;;
32186;SDS011;18686;53.084;8.872;2022-09-27T12:02:12;5.95;;;1.40;;
32186;SDS011;18686;53.084;8.872;2022-09-27T12:04:55;4.95;;;1.40;;
32186;SDS011;18686;53.084;8.872;2022-09-27T12:07:40;4.07;;;1.65;;
32186;SDS011;18686;53.084;8.872;2022-09-27T12:10:14;2.28;;;1.17;;
32186;SDS011;18686;53.084;8.872;2022-09-27T12:12:49;8.40;;;1.80;;
32186;SDS011;18686;53.084;8.872;2022-09-27T12:15:21;3.50;;;1.50;;
32186;SDS011;18686;53.084;8.872;2022-09-27T12:17:55;4.03;;;1.50;;
32186;SDS011;18686;53.084;8.872;2022-09-27T12:20:33;3.63;;;1.60;;
32186;SDS011;18686;53.084;8.872;2022-09-27T12:23:04;9.00;;;1.85;;
32186;SDS011;18686;53.084;8.872;2022-09-27T12:26:09;9.80;;;1.70;;
32186;SDS011;18686;53.084;8.872;2022-09-27T12:28:42;6.38;;;1.73;;
32186;SDS011;18686;53.084;8.872;2022-09-27T12:31:19;5.93;;;2.03;;
32186;SDS011;18686;53.084;8.872;2022-09-27T12:34:02;6.25;;;1.42;;
32186;SDS011;18686;53.084;8.872;2022-09-27T12:36:45;5.03;;;1.70;;
32186;SDS011;18686;53.084;8.872;2022-09-27T12:39:19;3.22;;;1.60;;
32186;SDS011;18686;53.084;8.872;2022-09-27T12:41:57;4.72;;;1.45;;
32186;SDS011;18686;53.084;8.872;2022-09-27T12:44:41;7.97;;;1.40;;
32186;SDS011;18686;53.084;8.872;2022-09-27T12:47:22;5.35;;;1.98;;
32186;SDS011;18686;53.084;8.872;2022-09-27T12:50:14;3.55;;;1.70;;
32186;SDS011;18686;53.084;8.872;2022-09-27T12:52:52;5.00;;;1.70;;
32186;SDS011;18686;53.084;8.872;2022-09-27T12:58:32;4.43;;;1.42;;
32186;SDS011;18686;53.084;8.872;2022-09-27T13:01:19;8.27;;;1.80;;
32186;SDS011;18686;53.084;8.872;2022-09-27T13:04:05;5.20;;;1.80;;
32186;SDS011;18686;53.084;8.872;2022-09-27T13:06:55;5.20;;;1.67;;
32186;SDS011;18686;53.084;8.872;2022-09-27T13:12:33;4.75;;;1.77;;
32186;SDS011;18686;53.084;8.872;2022-09-27T13:15:05;3.55;;;1.30;;
32186;SDS011;18686;53.084;8.872;2022-09-27T13:17:51;4.18;;;1.63;;
32186;SDS011;18686;53.084;8.872;2022-09-27T13:20:44;5.07;;;1.60;;
32186;SDS011;18686;53.084;8.872;2022-09-27T13:26:46;3.45;;;1.80;;
32186;SDS011;18686;53.084;8.872;2022-09-27T13:29:20;3.88;;;1.40;;
32186;SDS011;18686;53.084;8.872;2022-09-27T13:35:11;4.13;;;1.75;;
32186;SDS011;18686;53.084;8.872;2022-09-27T13:37:54;6.25;;;2.80;;
32186;SDS011;18686;53.084;8.872;2022-09-27T13:40:32;3.30;;;1.30;;
32186;SDS011;18686;53.084;8.872;2022-09-27T13:46:50;8.82;;;1.20;;
32186;SDS011;18686;53.084;8.872;2022-09-27T13:49:23;2.42;;;0.98;;
32186;SDS011;18686;53.084;8.872;2022-09-27T13:52:13;1.50;;;1.00;;
32186;SDS011;18686;53.084;8.872;2022-09-27T13:55:29;3.53;;;1.00;;
32186;SDS011;18686;53.084;8.872;2022-09-27T13:58:12;6.25;;;1.20;;
32186;SDS011;18686;53.084;8.872;2022-09-27T14:00:49;2.83;;;0.88;;
32186;SDS011;18686;53.084;8.872;2022-09-27T14:03:27;2.20;;;0.88;;
32186;SDS011;18686;53.084;8.872;2022-09-27T14:06:25;1.90;;;0.82;;
32186;SDS011;18686;53.084;8.872;2022-09-27T14:09:02;3.88;;;0.50;;
32186;SDS011;18686;53.084;8.872;2022-09-27T14:11:33;1.08;;;0.50;;
32186;SDS011;18686;53.084;8.872;2022-09-27T14:14:06;1.15;;;0.30;;
32186;SDS011;18686;53.084;8.872;2022-09-27T14:16:45;1.33;;;0.57;;
32186;SDS011;18686;53.084;8.872;2022-09-27T14:19:15;2.88;;;0.70;;
32186;SDS011;18686;53.084;8.872;2022-09-27T14:21:47;2.05;;;1.08;;
32186;SDS011;18686;53.084;8.872;2022-09-27T14:24:24;1.48;;;0.60;;
32186;SDS011;18686;53.084;8.872;2022-09-27T14:27:04;1.00;;;0.80;;
32186;SDS011;18686;53.084;8.872;2022-09-27T14:29:39;4.25;;;1.77;;
32186;SDS011;18686;53.084;8.872;2022-09-27T14:32:13;4.53;;;1.50;;
32186;SDS011;18686;53.084;8.872;2022-09-27T14:35:02;2.50;;;0.50;;
32186;SDS011;18686;53.084;8.872;2022-09-27T14:37:53;0.40;;;0.30;;
32186;SDS011;18686;53.084;8.872;2022-09-27T14:40:21;2.58;;;0.60;;
32186;SDS011;18686;53.084;8.872;2022-09-27T14:42:51;0.40;;;0.40;;
32186;SDS011;18686;53.084;8.872;2022-09-27T14:45:23;2.65;;;2.00;;
32186;SDS011;18686;53.084;8.872;2022-09-27T14:47:55;3.50;;;1.73;;
32186;SDS011;18686;53.084;8.872;2022-09-27T14:50:24;4.10;;;3.00;;
32186;SDS011;18686;53.084;8.872;2022-09-27T14:52:55;2.55;;;1.77;;
32186;SDS011;18686;53.084;8.872;2022-09-27T14:55:26;2.25;;;0.82;;
32186;SDS011;18686;53.084;8.872;2022-09-27T14:58:00;1.42;;;1.17;;
32186;SDS011;18686;53.084;8.872;2022-09-27T15:00:32;0.70;;;0.45;;
32186;SDS011;18686;53.084;8.872;2022-09-27T15:03:03;1.63;;;0.50;;
32186;SDS011;18686;53.084;8.872;2022-09-27T15:05:34;0.77;;;0.50;;
32186;SDS011;18686;53.084;8.872;2022-09-27T15:08:08;1.73;;;0.70;;
32186;SDS011;18686;53.084;8.872;2022-09-27T15:10:40;0.60;;;0.50;;
32186;SDS011;18686;53.084;8.872;2022-09-27T15:13:11;1.00;;;0.47;;
32186;SDS011;18686;53.084;8.872;2022-09-27T15:15:44;3.72;;;3.28;;
32186;SDS011;18686;53.084;8.872;2022-09-27T15:18:31;4.05;;;2.47;;
32186;SDS011;18686;53.084;8.872;2022-09-27T15:21:06;1.60;;;0.98;;
32186;SDS011;18686;53.084;8.872;2022-09-27T15:23:36;1.35;;;0.57;;
32186;SDS011;18686;53.084;8.872;2022-09-27T15:26:07;1.33;;;0.50;;
32186;SDS011;18686;53.084;8.872;2022-09-27T15:28:41;1.67;;;0.50;;
32186;SDS011;18686;53.084;8.872;2022-09-27T15:31:12;0.70;;;0.50;;
32186;SDS011;18686;53.084;8.872;2022-09-27T15:33:40;2.03;;;0.70;;
32186;SDS011;18686;53.084;8.872;2022-09-27T15:36:09;1.70;;;0.75;;
32186;SDS011;18686;53.084;8.872;2022-09-27T15:38:41;0.82;;;0.60;;
32186;SDS011;18686;53.084;8.872;2022-09-27T15:41:12;1.20;;;0.40;;
32186;SDS011;18686;53.084;8.872;2022-09-27T15:43:43;1.20;;;0.50;;
32186;SDS011;18686;53.084;8.872;2022-09-27T15:46:26;9.05;;;1.13;;
32186;SDS011;18686;53.084;8.872;2022-09-27T15:51:56;0.73;;;0.50;;
32186;SDS011;18686;53.084;8.872;2022-09-27T15:54:26;1.20;;;0.40;;
32186;SDS011;18686;53.084;8.872;2022-09-27T15:56:56;1.17;;;0.50;;
32186;SDS011;18686;53.084;8.872;2022-09-27T15:59:30;0.57;;;0.57;;
32186;SDS011;18686;53.084;8.872;2022-09-27T16:02:02;1.73;;;0.77;;
32186;SDS011;18686;53.084;8.872;2022-09-27T16:04:36;2.03;;;1.25;;
32186;SDS011;18686;53.084;8.872;2022-09-27T16:07:04;2.72;;;2.17;;